createdAt,value
2022-08-28T00:00:51.552Z,4.88
2022-08-28T00:03:19.699Z,5.43
2022-08-28T00:05:47.456Z,7.70
2022-08-28T00:08:16.789Z,4.68
2022-08-28T00:10:45.341Z,6.15
2022-08-28T00:13:18.993Z,4.88
2022-08-28T00:15:47.781Z,7.30
2022-08-28T00:18:15.450Z,3.67
2022-08-28T00:20:43.514Z,4.85
2022-08-28T00:23:11.210Z,7.25
2022-08-28T00:25:38.878Z,5.47
2022-08-28T00:28:08.837Z,6.22
2022-08-28T00:30:42.646Z,4.95
2022-08-28T00:33:15.243Z,7.55
2022-08-28T00:35:43.617Z,4.68
2022-08-28T00:38:12.020Z,6.13
2022-08-28T00:40:42.812Z,5.78
2022-08-28T00:43:12.737Z,5.43
2022-08-28T00:45:40.448Z,8.07
2022-08-28T00:48:08.519Z,6.03
2022-08-28T00:51:00.412Z,5.00
2022-08-28T00:53:30.171Z,4.63
2022-08-28T00:56:02.292Z,3.97
2022-08-28T00:58:32.150Z,5.90
2022-08-28T01:01:00.700Z,5.35
2022-08-28T01:03:29.409Z,6.20
2022-08-28T01:05:57.070Z,6.38
2022-08-28T01:08:24.870Z,4.38
2022-08-28T01:10:59.573Z,3.80
2022-08-28T01:13:27.371Z,6.55
2022-08-28T01:15:55.295Z,4.75
2022-08-28T01:18:23.180Z,4.13
2022-08-28T01:21:02.143Z,6.38
2022-08-28T01:23:48.652Z,4.72
2022-08-28T01:26:16.446Z,6.88
2022-08-28T01:28:44.202Z,6.10
2022-08-28T01:31:13.016Z,5.50
2022-08-28T01:33:42.464Z,6.53
2022-08-28T01:36:12.244Z,6.65
2022-08-28T01:38:41.378Z,5.70
2022-08-28T01:41:09.382Z,4.65
2022-08-28T01:43:36.974Z,6.32
2022-08-28T01:46:06.185Z,4.22
2022-08-28T01:48:36.101Z,5.88
2022-08-28T01:51:04.820Z,8.13
2022-08-28T01:53:33.097Z,6.20
2022-08-28T01:56:02.619Z,10.02
2022-08-28T01:58:37.885Z,9.40
2022-08-28T02:01:10.612Z,7.97
2022-08-28T02:03:38.467Z,5.30
2022-08-28T02:06:06.373Z,7.47
2022-08-28T02:08:34.066Z,7.05
2022-08-28T02:11:02.094Z,8.88
2022-08-28T02:13:29.719Z,5.60
2022-08-28T02:15:58.002Z,6.22
2022-08-28T02:18:25.679Z,10.27
2022-08-28T02:20:53.356Z,5.35
2022-08-28T02:23:20.994Z,5.97
2022-08-28T02:25:49.890Z,6.65
2022-08-28T02:28:18.570Z,8.15
2022-08-28T02:30:46.289Z,5.28
2022-08-28T02:33:13.950Z,7.05
2022-08-28T02:35:42.958Z,6.15
2022-08-28T02:38:10.971Z,6.38
2022-08-28T02:40:39.448Z,6.90
2022-08-28T02:43:07.366Z,5.32
2022-08-28T02:45:35.161Z,5.90
2022-08-28T02:48:02.974Z,6.68
2022-08-28T02:50:31.103Z,7.32
2022-08-28T02:52:59.470Z,5.90
2022-08-28T02:55:30.287Z,7.65
2022-08-28T02:58:01.327Z,4.93
2022-08-28T03:00:29.019Z,6.75
2022-08-28T03:02:56.685Z,7.30
2022-08-28T03:05:25.573Z,5.45
2022-08-28T03:07:54.025Z,5.82
2022-08-28T03:10:21.789Z,5.65
2022-08-28T03:12:49.364Z,7.55
2022-08-28T03:15:18.036Z,8.52
2022-08-28T03:17:45.697Z,4.85
2022-08-28T03:20:16.388Z,7.00
2022-08-28T03:23:02.606Z,6.47
2022-08-28T03:25:30.285Z,7.63
2022-08-28T03:27:57.940Z,9.02
2022-08-28T03:30:25.772Z,9.13
2022-08-28T03:32:53.992Z,7.13
2022-08-28T03:35:22.090Z,7.68
2022-08-28T03:37:49.930Z,6.78
2022-08-28T03:40:17.733Z,7.82
2022-08-28T03:42:49.496Z,7.55
2022-08-28T03:45:21.671Z,8.93
2022-08-28T03:47:50.798Z,6.13
2022-08-28T03:50:18.709Z,3.97
2022-08-28T03:52:47.644Z,6.25
2022-08-28T03:55:15.810Z,7.38
2022-08-28T03:57:43.451Z,5.85
2022-08-28T04:00:13.052Z,7.32
2022-08-28T04:02:41.736Z,6.93
2022-08-28T04:05:09.806Z,10.32
2022-08-28T04:07:37.997Z,6.20
2022-08-28T04:10:06.121Z,5.68
2022-08-28T04:12:35.235Z,6.07
2022-08-28T04:15:05.095Z,9.07
2022-08-28T04:17:34.462Z,5.90
2022-08-28T04:20:02.095Z,5.68
2022-08-28T04:22:30.355Z,6.00
2022-08-28T04:24:58.067Z,6.35
2022-08-28T04:27:25.655Z,7.00
2022-08-28T04:29:53.274Z,7.93
2022-08-28T04:32:22.461Z,7.30
2022-08-28T04:34:51.026Z,6.57
2022-08-28T04:37:19.290Z,7.15
2022-08-28T04:39:46.958Z,7.03
2022-08-28T04:42:14.854Z,6.32
2022-08-28T04:44:42.529Z,7.43
2022-08-28T04:47:10.253Z,10.93
2022-08-28T04:49:37.957Z,6.50
2022-08-28T04:52:05.720Z,5.80
2022-08-28T04:54:34.269Z,7.50
2022-08-28T04:57:02.759Z,7.43
2022-08-28T04:59:34.301Z,8.93
2022-08-28T05:02:02.073Z,6.50
2022-08-28T05:04:29.934Z,7.35
2022-08-28T05:06:57.762Z,7.88
2022-08-28T05:09:25.459Z,9.38
2022-08-28T05:11:53.498Z,7.35
2022-08-28T05:14:21.838Z,7.88
2022-08-28T05:16:51.276Z,9.93
2022-08-28T05:19:19.913Z,6.93
2022-08-28T05:21:48.044Z,8.90
2022-08-28T05:24:15.719Z,6.97
2022-08-28T05:26:43.651Z,7.53
2022-08-28T05:29:16.803Z,10.10
2022-08-28T05:31:46.219Z,8.07
2022-08-28T05:34:15.175Z,7.75
2022-08-28T05:36:43.180Z,7.75
2022-08-28T05:39:11.605Z,8.82
2022-08-28T05:41:41.170Z,9.90
2022-08-28T05:44:09.927Z,7.10
2022-08-28T05:46:39.741Z,6.93
2022-08-28T05:49:10.167Z,6.60
2022-08-28T05:51:40.201Z,7.03
2022-08-28T05:54:07.862Z,8.75
2022-08-28T05:56:36.905Z,10.07
2022-08-28T05:59:05.904Z,9.35
2022-08-28T06:01:35.196Z,8.63
2022-08-28T06:04:06.318Z,6.32
2022-08-28T06:06:34.966Z,7.75
2022-08-28T06:09:05.909Z,6.65
2022-08-28T06:11:33.946Z,5.67
2022-08-28T06:14:04.448Z,7.15
2022-08-28T06:16:32.852Z,6.25
2022-08-28T06:19:00.890Z,8.60
2022-08-28T06:21:29.049Z,6.32
2022-08-28T06:23:56.861Z,8.52
2022-08-28T06:26:24.535Z,6.43
2022-08-28T06:28:53.589Z,6.53
2022-08-28T06:31:23.177Z,5.28
2022-08-28T06:33:51.802Z,9.25
2022-08-28T06:36:19.405Z,6.28
2022-08-28T06:38:47.013Z,6.05
2022-08-28T06:41:15.584Z,6.97
2022-08-28T06:43:43.632Z,6.20
2022-08-28T06:46:11.330Z,8.00
2022-08-28T06:48:39.085Z,9.52
2022-08-28T06:51:08.004Z,5.95
2022-08-28T06:53:35.749Z,7.70
2022-08-28T06:56:08.597Z,7.20
2022-08-28T06:58:40.618Z,9.23
2022-08-28T07:01:10.612Z,9.25
2022-08-28T07:03:42.637Z,6.38
2022-08-28T07:06:13.018Z,7.45
2022-08-28T07:08:41.506Z,5.78
2022-08-28T07:11:09.774Z,7.70
2022-08-28T07:13:37.654Z,7.70
2022-08-28T07:16:05.409Z,6.47
2022-08-28T07:18:33.149Z,9.02
2022-08-28T07:21:00.843Z,5.82
2022-08-28T07:23:28.969Z,9.95
2022-08-28T07:25:56.708Z,7.93
2022-08-28T07:28:24.502Z,6.72
2022-08-28T07:31:00.147Z,5.43
2022-08-28T07:33:28.907Z,8.07
2022-08-28T07:35:57.401Z,6.75
2022-08-28T07:38:25.425Z,10.70
2022-08-28T07:40:53.533Z,8.05
2022-08-28T07:43:40.046Z,9.40
2022-08-28T07:46:09.216Z,7.68
2022-08-28T07:48:37.600Z,10.95
2022-08-28T07:51:06.180Z,13.68
2022-08-28T07:53:36.490Z,6.03
2022-08-28T07:56:05.186Z,9.32
2022-08-28T07:58:33.265Z,6.50
2022-08-28T08:01:01.400Z,11.75
2022-08-28T08:03:30.580Z,7.10
2022-08-28T08:05:59.824Z,12.00
2022-08-28T08:08:27.548Z,10.52
2022-08-28T08:11:06.050Z,8.90
2022-08-28T08:13:34.933Z,9.30
2022-08-28T08:16:04.046Z,11.68
2022-08-28T08:18:32.014Z,8.68
2022-08-28T08:20:59.698Z,8.60
2022-08-28T08:23:27.423Z,8.68
2022-08-28T08:25:59.100Z,6.40
2022-08-28T08:28:28.466Z,11.63
2022-08-28T08:31:05.157Z,6.63
2022-08-28T08:33:33.187Z,10.55
2022-08-28T08:36:01.109Z,14.73
2022-08-28T08:38:32.193Z,17.25
2022-08-28T08:41:00.437Z,10.52
2022-08-28T08:43:29.501Z,7.22
2022-08-28T08:45:57.182Z,8.98
2022-08-28T08:48:32.685Z,8.20
2022-08-28T08:51:03.805Z,6.35
2022-08-28T08:53:50.613Z,6.00
2022-08-28T08:56:21.719Z,9.65
2022-08-28T08:58:53.803Z,9.20
2022-08-28T09:01:21.803Z,8.73
2022-08-28T09:04:01.765Z,9.02
2022-08-28T09:06:48.371Z,11.25
2022-08-28T09:09:19.082Z,7.93
2022-08-28T09:11:56.564Z,9.57
2022-08-28T09:14:43.831Z,11.40
2022-08-28T09:17:13.105Z,8.27
2022-08-28T09:19:40.766Z,12.45
2022-08-28T09:22:08.499Z,9.65
2022-08-28T09:24:36.924Z,13.88
2022-08-28T09:27:12.290Z,11.18
2022-08-28T09:29:43.317Z,15.43
2022-08-28T09:32:30.944Z,11.60
2022-08-28T09:35:04.059Z,11.73
2022-08-28T09:37:32.698Z,12.27
2022-08-28T09:40:14.858Z,11.27
2022-08-28T09:43:16.098Z,11.80
2022-08-28T09:45:43.780Z,21.00
2022-08-28T09:48:25.596Z,10.23
2022-08-28T09:51:03.582Z,12.00
2022-08-28T09:53:32.865Z,10.07
2022-08-28T09:56:01.486Z,9.32
2022-08-28T09:58:40.045Z,13.75
2022-08-28T10:01:27.963Z,14.90
2022-08-28T10:04:07.944Z,10.77
2022-08-28T10:06:37.133Z,10.88
2022-08-28T10:09:07.780Z,13.30
2022-08-28T10:11:55.837Z,12.07
2022-08-28T10:14:29.474Z,12.90
2022-08-28T10:17:07.392Z,17.98
2022-08-28T10:19:35.037Z,10.75
2022-08-28T10:22:17.961Z,14.57
2022-08-28T10:24:55.731Z,11.77
2022-08-28T10:27:26.628Z,10.60
2022-08-28T10:30:09.967Z,10.57
2022-08-28T10:32:43.315Z,12.60
2022-08-28T10:35:31.234Z,14.13
2022-08-28T10:38:13.662Z,17.15
2022-08-28T10:40:47.485Z,16.17
2022-08-28T10:43:19.300Z,10.70
2022-08-28T10:48:26.184Z,11.82
2022-08-28T10:50:56.494Z,11.82
2022-08-28T10:53:27.063Z,10.75
2022-08-28T10:56:04.045Z,15.55
2022-08-28T10:58:32.936Z,10.50
2022-08-28T11:01:03.941Z,14.60
2022-08-28T11:03:38.009Z,15.50
2022-08-28T11:06:16.752Z,11.93
2022-08-28T11:08:50.585Z,10.63
2022-08-28T11:11:38.113Z,11.98
2022-08-28T11:14:05.789Z,12.75
2022-08-28T11:16:33.455Z,12.50
2022-08-28T11:19:02.008Z,15.32
2022-08-28T11:21:31.213Z,13.65
2022-08-28T11:24:06.661Z,14.32
2022-08-28T11:26:39.551Z,10.13
2022-08-28T11:29:07.568Z,12.55
2022-08-28T11:31:36.752Z,13.50
2022-08-28T11:34:05.598Z,10.88
2022-08-28T11:36:33.349Z,10.13
2022-08-28T11:39:02.512Z,12.05
2022-08-28T11:41:34.673Z,12.90
2022-08-28T11:44:14.182Z,13.70
2022-08-28T11:46:46.152Z,10.00
2022-08-28T11:49:32.427Z,13.20
2022-08-28T11:52:18.434Z,11.75
2022-08-28T11:54:55.747Z,11.52
2022-08-28T11:57:26.501Z,8.98
2022-08-28T12:00:08.466Z,13.15
2022-08-28T12:02:43.070Z,12.18
2022-08-28T12:05:13.162Z,11.70
2022-08-28T12:07:42.744Z,14.20
2022-08-28T12:10:28.086Z,11.95
2022-08-28T12:12:55.723Z,12.75
2022-08-28T12:15:29.664Z,12.48
2022-08-28T12:18:04.997Z,12.18
2022-08-28T12:20:41.670Z,8.00
2022-08-28T12:23:24.567Z,11.48
2022-08-28T12:25:59.254Z,9.40
2022-08-28T12:28:37.984Z,10.98
2022-08-28T12:31:05.608Z,8.48
2022-08-28T12:33:39.925Z,10.23
2022-08-28T12:36:11.603Z,12.30
2022-08-28T12:41:14.805Z,9.90
2022-08-28T12:43:46.585Z,9.48
2022-08-28T12:46:23.419Z,12.48
2022-08-28T12:48:55.734Z,8.85
2022-08-28T12:51:25.599Z,10.55
2022-08-28T12:53:57.459Z,8.82
2022-08-28T12:56:26.169Z,11.88
2022-08-28T12:58:53.873Z,8.60
2022-08-28T13:01:30.172Z,7.22
2022-08-28T13:04:21.001Z,9.52
2022-08-28T13:06:48.668Z,10.85
2022-08-28T13:09:17.504Z,10.60
2022-08-28T13:11:46.946Z,10.65
2022-08-28T13:14:14.686Z,9.63
2022-08-28T13:16:44.629Z,11.02
2022-08-28T13:19:13.697Z,9.70
2022-08-28T13:21:47.226Z,9.30
2022-08-28T13:24:27.368Z,13.80
2022-08-28T13:27:07.102Z,12.98
2022-08-28T13:29:35.430Z,10.43
2022-08-28T13:32:05.422Z,6.65
2022-08-28T13:34:34.767Z,7.90
2022-08-28T13:37:14.980Z,9.18
2022-08-28T13:39:48.027Z,7.70
2022-08-28T13:42:18.022Z,11.00
2022-08-28T13:44:56.734Z,8.27
2022-08-28T13:47:25.347Z,7.18
2022-08-28T13:49:53.027Z,8.75
2022-08-28T13:52:20.633Z,8.25
2022-08-28T13:54:48.333Z,7.20
2022-08-28T13:57:16.130Z,5.63
2022-08-28T13:59:43.938Z,7.28
2022-08-28T14:02:31.915Z,6.25
2022-08-28T14:04:59.648Z,7.50
2022-08-28T14:07:27.382Z,7.32
2022-08-28T14:09:56.588Z,7.03
2022-08-28T14:12:31.343Z,7.65
2022-08-28T14:15:01.504Z,8.23
2022-08-28T14:17:29.271Z,8.50
2022-08-28T14:19:57.505Z,6.45
2022-08-28T14:22:25.180Z,7.20
2022-08-28T14:24:52.974Z,9.23
2022-08-28T14:27:20.762Z,8.95
2022-08-28T14:29:49.108Z,10.70
2022-08-28T14:32:16.845Z,9.88
2022-08-28T14:34:44.487Z,9.02
2022-08-28T14:37:12.473Z,8.10
2022-08-28T14:39:42.043Z,9.02
2022-08-28T14:42:12.996Z,9.05
2022-08-28T14:44:40.800Z,7.47
2022-08-28T14:47:08.722Z,8.15
2022-08-28T14:49:36.355Z,5.85
2022-08-28T14:52:04.626Z,8.10
2022-08-28T14:54:32.373Z,5.95
2022-08-28T14:56:59.994Z,14.18
2022-08-28T14:59:29.106Z,7.30
2022-08-28T15:02:00.423Z,10.10
2022-08-28T15:04:34.273Z,7.32
2022-08-28T15:07:02.993Z,8.63
2022-08-28T15:09:30.602Z,6.25
2022-08-28T15:11:58.266Z,9.07
2022-08-28T15:14:25.958Z,7.65
2022-08-28T15:16:53.641Z,9.05
2022-08-28T15:19:23.301Z,6.78
2022-08-28T15:21:53.006Z,9.35
2022-08-28T15:24:24.820Z,7.70
2022-08-28T15:26:52.426Z,6.75
2022-08-28T15:29:20.106Z,9.02
2022-08-28T15:31:49.148Z,7.40
2022-08-28T15:34:18.910Z,7.57
2022-08-28T15:36:54.624Z,7.70
2022-08-28T15:39:42.172Z,9.48
2022-08-28T15:42:10.305Z,6.05
2022-08-28T15:44:38.132Z,7.80
2022-08-28T15:47:06.220Z,8.38
2022-08-28T15:49:43.443Z,9.30
2022-08-28T15:52:18.571Z,10.50
2022-08-28T15:54:46.347Z,12.35
2022-08-28T15:57:14.028Z,10.40
2022-08-28T15:59:49.517Z,8.30
2022-08-28T16:02:22.332Z,8.20
2022-08-28T16:04:50.550Z,11.43
2022-08-28T16:07:18.796Z,9.35
2022-08-28T16:09:46.561Z,11.65
2022-08-28T16:12:14.658Z,8.57
2022-08-28T16:14:42.233Z,10.38
2022-08-28T16:17:10.725Z,8.15
2022-08-28T16:19:40.138Z,13.32
2022-08-28T16:22:08.721Z,12.63
2022-08-28T16:24:36.877Z,11.13
2022-08-28T16:27:06.397Z,12.43
2022-08-28T16:29:37.584Z,8.18
2022-08-28T16:32:05.876Z,10.32
2022-08-28T16:34:34.799Z,11.73
2022-08-28T16:37:02.681Z,11.93
2022-08-28T16:39:30.625Z,9.82
2022-08-28T16:41:58.406Z,10.35
2022-08-28T16:44:26.659Z,9.52
2022-08-28T16:46:55.405Z,7.35
2022-08-28T16:49:23.771Z,6.72
2022-08-28T16:51:51.628Z,8.88
2022-08-28T16:54:20.847Z,8.85
2022-08-28T16:56:48.628Z,9.27
2022-08-28T16:59:18.226Z,8.25
2022-08-28T17:01:45.967Z,10.00
2022-08-28T17:04:20.871Z,9.02
2022-08-28T17:06:48.568Z,8.38
2022-08-28T17:09:16.238Z,7.72
2022-08-28T17:11:43.843Z,13.05
2022-08-28T17:14:12.024Z,6.75
2022-08-28T17:16:40.242Z,8.38
2022-08-28T17:19:07.849Z,8.10
2022-08-28T17:21:54.291Z,6.95
2022-08-28T17:24:22.382Z,7.85
2022-08-28T17:26:50.077Z,5.95
2022-08-28T17:29:17.816Z,9.18
2022-08-28T17:31:45.673Z,7.10
2022-08-28T17:34:13.516Z,8.23
2022-08-28T17:36:42.388Z,8.35
2022-08-28T17:39:11.940Z,7.20
2022-08-28T17:41:40.801Z,9.30
2022-08-28T17:44:08.536Z,8.07
2022-08-28T17:46:37.966Z,9.30
2022-08-28T17:49:07.254Z,10.07
2022-08-28T17:51:43.470Z,9.40
2022-08-28T17:54:13.093Z,10.80
2022-08-28T17:56:41.019Z,10.85
2022-08-28T17:59:09.201Z,13.55
2022-08-28T18:01:37.508Z,16.52
2022-08-28T18:04:05.457Z,17.55
2022-08-28T18:06:33.232Z,20.05
2022-08-28T18:09:00.903Z,16.23
2022-08-28T18:11:28.970Z,13.07
2022-08-28T18:13:57.149Z,9.80
2022-08-28T18:16:30.366Z,11.57
2022-08-28T18:18:59.382Z,15.40
2022-08-28T18:21:27.063Z,14.88
2022-08-28T18:23:54.716Z,11.35
2022-08-28T18:26:22.367Z,13.40
2022-08-28T18:28:51.083Z,8.68
2022-08-28T18:31:19.176Z,15.30
2022-08-28T18:33:46.846Z,22.15
2022-08-28T18:36:15.184Z,13.70
2022-08-28T18:38:43.867Z,19.42
2022-08-28T18:41:12.167Z,14.40
2022-08-28T18:43:39.920Z,12.40
2022-08-28T18:46:10.624Z,14.25
2022-08-28T18:48:38.764Z,12.05
2022-08-28T18:51:07.755Z,19.02
2022-08-28T18:53:36.062Z,12.18
2022-08-28T18:56:04.522Z,19.08
2022-08-28T18:58:32.326Z,12.95
2022-08-28T19:01:01.355Z,15.25
2022-08-28T19:03:29.262Z,16.10
2022-08-28T19:05:57.237Z,12.48
2022-08-28T19:08:25.417Z,11.88
2022-08-28T19:10:53.967Z,12.57
2022-08-28T19:13:21.573Z,14.95
2022-08-28T19:15:53.263Z,10.93
2022-08-28T19:20:48.729Z,13.05
2022-08-28T19:23:17.769Z,17.23
2022-08-28T19:25:46.614Z,16.83
2022-08-28T19:28:14.331Z,16.95
2022-08-28T19:30:42.322Z,14.10
2022-08-28T19:33:12.554Z,12.52
2022-08-28T19:35:40.286Z,13.45
2022-08-28T19:38:08.128Z,12.43
2022-08-28T19:40:35.866Z,12.32
2022-08-28T19:43:03.555Z,13.77
2022-08-28T19:45:34.102Z,14.25
2022-08-28T19:48:01.828Z,13.23
2022-08-28T19:50:29.516Z,13.02
2022-08-28T19:52:57.137Z,14.10
2022-08-28T19:55:26.580Z,12.43
2022-08-28T19:57:54.720Z,12.73
2022-08-28T20:00:23.577Z,13.57
2022-08-28T20:02:52.414Z,12.00
2022-08-28T20:05:21.017Z,12.88
2022-08-28T20:07:48.958Z,9.77
2022-08-28T20:10:16.834Z,12.30
2022-08-28T20:12:48.545Z,11.48
2022-08-28T20:15:17.200Z,10.30
2022-08-28T20:17:49.393Z,12.43
2022-08-28T20:20:18.946Z,11.65
2022-08-28T20:22:46.589Z,11.80
2022-08-28T20:25:15.639Z,10.10
2022-08-28T20:27:43.305Z,11.75
2022-08-28T20:30:11.558Z,13.68
2022-08-28T20:32:40.414Z,9.82
2022-08-28T20:35:09.489Z,10.02
2022-08-28T20:37:45.011Z,10.65
2022-08-28T20:40:17.480Z,12.55
2022-08-28T20:42:45.477Z,14.98
2022-08-28T20:45:14.086Z,8.38
2022-08-28T20:47:41.832Z,9.30
2022-08-28T20:50:10.061Z,10.52
2022-08-28T20:52:37.838Z,12.27
2022-08-28T20:55:07.567Z,8.27
2022-08-28T20:57:35.299Z,10.50
2022-08-28T21:00:05.761Z,7.82
2022-08-28T21:02:33.602Z,8.20
2022-08-28T21:05:01.780Z,8.32
2022-08-28T21:07:29.588Z,10.50
2022-08-28T21:10:05.478Z,6.97
2022-08-28T21:12:38.767Z,10.40
2022-08-28T21:15:10.889Z,9.15
2022-08-28T21:17:38.793Z,7.07
2022-08-28T21:20:09.267Z,8.57
2022-08-28T21:22:38.401Z,8.02
2022-08-28T21:25:07.651Z,10.38
2022-08-28T21:27:35.694Z,7.70
2022-08-28T21:30:03.623Z,6.40
2022-08-28T21:32:32.742Z,5.30
2022-08-28T21:35:02.221Z,2.65
2022-08-28T21:37:31.194Z,3.03
2022-08-28T21:39:59.595Z,1.83
2022-08-28T21:42:27.708Z,2.25
2022-08-28T21:44:55.335Z,1.75
2022-08-28T21:47:23.805Z,3.10
2022-08-28T21:49:53.223Z,1.23
2022-08-28T21:52:22.047Z,2.67
2022-08-28T21:54:49.826Z,6.00
2022-08-28T21:57:17.788Z,3.75
2022-08-28T21:59:45.489Z,2.30
2022-08-28T22:02:13.216Z,1.80
2022-08-28T22:04:40.966Z,2.40
2022-08-28T22:07:11.153Z,5.22
2022-08-28T22:09:38.866Z,2.00
2022-08-28T22:12:08.968Z,2.40
2022-08-28T22:14:37.348Z,4.00
2022-08-28T22:17:10.665Z,3.47
2022-08-28T22:19:39.635Z,3.53
2022-08-28T22:22:26.165Z,4.07
2022-08-28T22:24:54.510Z,3.08
2022-08-28T22:27:22.235Z,3.42
2022-08-28T22:29:49.923Z,3.30
2022-08-28T22:32:18.258Z,2.30
2022-08-28T22:34:46.345Z,2.63
2022-08-28T22:37:14.330Z,3.47
2022-08-28T22:39:42.444Z,2.65
2022-08-28T22:42:10.492Z,2.22
2022-08-28T22:44:38.520Z,2.58
2022-08-28T22:47:07.287Z,1.85
2022-08-28T22:49:36.010Z,2.30
2022-08-28T22:52:10.259Z,1.52
2022-08-28T22:54:37.996Z,2.63
2022-08-28T22:57:06.003Z,1.42
2022-08-28T22:59:34.322Z,2.17
2022-08-28T23:02:03.730Z,3.10
2022-08-28T23:04:31.490Z,2.90
2022-08-28T23:06:59.148Z,1.67
2022-08-28T23:09:27.555Z,2.47
2022-08-28T23:11:55.278Z,3.00
2022-08-28T23:14:27.879Z,4.80
2022-08-28T23:16:55.931Z,4.65
2022-08-28T23:19:23.694Z,3.47
2022-08-28T23:21:51.544Z,2.20
2022-08-28T23:24:19.250Z,4.95
2022-08-28T23:26:47.145Z,3.35
2022-08-28T23:29:14.930Z,2.65
2022-08-28T23:31:42.901Z,2.78
2022-08-28T23:34:10.898Z,3.72
2022-08-28T23:36:39.392Z,2.63
2022-08-28T23:39:10.603Z,3.42
2022-08-28T23:41:38.245Z,4.22
2022-08-28T23:44:08.954Z,4.97
2022-08-28T23:46:37.282Z,5.18
2022-08-28T23:49:09.848Z,4.57
2022-08-28T23:51:37.909Z,3.90
2022-08-28T23:54:06.392Z,3.35
2022-08-28T23:56:34.530Z,5.53
2022-08-28T23:59:02.182Z,7.88
